Lockwood, North Dakota
Current Conditions -  °F | °C
As of 12:35 PM on Saturday 20 Dec 2014 (Local Time) from KMIB Reporting Station
Overcast Overcast  
Wind Chill: 17°   Ceiling: 400
Heat Index: 23°   Visibility: 7mi
Dew Point: 23°   Wind: 5mph
Humidity: 100%   Direction: 160°SSE
Pressure: 29.84"   Gusts: NA
Location:  48.6236°N, 101.367°W
Report Text: KMIB 201835Z AUTO 16004KT 7SM OVC004 M05/M05 A2984 RMK AO2
Loading
Personal Weather Stations






























Interactive Weather Map New forecast layout! Learn more

10-Day Weather Forecast

Advertisements
Track Severe Weather on mobile